createdAt,value
2023-04-15T00:00:50.947Z,1564.00
2023-04-15T00:01:51.019Z,1566.00
2023-04-15T00:02:51.045Z,1570.00
2023-04-15T00:03:51.010Z,1557.00
2023-04-15T00:04:51.001Z,1558.00
2023-04-15T00:05:50.893Z,1548.00
2023-04-15T00:06:50.873Z,1555.00
2023-04-15T00:07:50.871Z,1555.00
2023-04-15T00:08:50.871Z,1551.00
2023-04-15T00:09:50.844Z,1562.00
2023-04-15T00:10:50.825Z,1555.00
2023-04-15T00:11:50.837Z,1554.00
2023-04-15T00:12:50.815Z,1554.00
2023-04-15T00:13:50.808Z,1542.00
2023-04-15T00:14:50.792Z,1534.00
2023-04-15T00:15:50.780Z,1541.00
2023-04-15T00:16:50.814Z,1534.00
2023-04-15T00:17:50.847Z,1532.00
2023-04-15T00:18:50.845Z,1534.00
2023-04-15T00:19:50.856Z,1532.00
2023-04-15T00:20:50.851Z,1533.00
2023-04-15T00:21:50.831Z,1532.00
2023-04-15T00:22:50.815Z,1534.00
2023-04-15T00:23:50.813Z,1532.00
2023-04-15T00:24:50.798Z,1528.00
2023-04-15T00:25:50.789Z,1538.00
2023-04-15T00:26:50.831Z,1519.00
2023-04-15T00:27:50.759Z,1539.00
2023-04-15T00:28:50.733Z,1534.00
2023-04-15T00:29:50.727Z,1533.00
2023-04-15T00:30:50.745Z,1530.00
2023-04-15T00:31:50.706Z,1524.00
2023-04-15T00:32:50.877Z,1529.00
2023-04-15T00:33:50.681Z,1531.00
2023-04-15T00:34:50.665Z,1522.00
2023-04-15T00:35:50.668Z,1519.00
2023-04-15T00:36:50.640Z,1521.00
2023-04-15T00:37:50.634Z,1505.00
2023-04-15T00:38:50.677Z,1507.00
2023-04-15T00:39:50.678Z,1503.00
2023-04-15T00:40:50.711Z,1501.00
2023-04-15T00:41:50.721Z,1502.00
2023-04-15T00:42:50.750Z,1508.00
2023-04-15T00:43:50.778Z,1498.00
2023-04-15T00:44:50.792Z,1498.00
2023-04-15T00:45:50.866Z,1506.00
2023-04-15T00:46:50.886Z,1508.00
2023-04-15T00:47:50.899Z,1498.00
2023-04-15T00:48:50.904Z,1502.00
2023-04-15T00:49:50.941Z,1504.00
2023-04-15T00:50:50.949Z,1493.00
2023-04-15T00:51:50.970Z,1499.00
2023-04-15T00:52:50.990Z,1492.00
2023-04-15T00:53:51.015Z,1488.00
2023-04-15T00:54:51.021Z,1489.00
2023-04-15T00:55:51.041Z,1488.00
2023-04-15T00:56:51.088Z,1486.00
2023-04-15T00:57:51.091Z,1482.00
2023-04-15T00:58:51.114Z,1501.00
2023-04-15T00:59:51.147Z,1481.00
2023-04-15T01:00:51.162Z,1489.00
2023-04-15T01:01:51.319Z,1483.00
2023-04-15T01:02:51.259Z,1478.00
2023-04-15T01:03:51.455Z,1484.00
2023-04-15T01:04:51.267Z,1482.00
2023-04-15T01:05:51.267Z,1479.00
2023-04-15T01:06:51.300Z,1468.00
2023-04-15T01:07:51.315Z,1481.00
2023-04-15T01:08:51.348Z,1472.00
2023-04-15T01:09:51.383Z,1467.00
2023-04-15T01:10:51.379Z,1472.00
2023-04-15T01:11:51.427Z,1481.00
2023-04-15T01:12:51.455Z,1469.00
2023-04-15T01:13:51.457Z,1465.00
2023-04-15T01:14:51.475Z,1463.00
2023-04-15T01:15:51.530Z,1462.00
2023-04-15T01:16:51.491Z,1463.00
2023-04-15T01:17:51.535Z,1464.00
2023-04-15T01:18:51.481Z,1460.00
2023-04-15T01:19:51.458Z,1473.00
2023-04-15T01:20:51.444Z,1472.00
2023-04-15T01:21:51.433Z,1463.00
2023-04-15T01:22:51.421Z,1475.00
2023-04-15T01:23:51.430Z,1457.00
2023-04-15T01:24:51.397Z,1457.00
2023-04-15T01:25:51.378Z,1461.00
2023-04-15T01:26:51.369Z,1467.00
2023-04-15T01:27:51.366Z,1456.00
2023-04-15T01:28:51.368Z,1459.00
2023-04-15T01:29:51.344Z,1463.00
2023-04-15T01:30:51.331Z,1467.00
2023-04-15T01:31:51.411Z,1459.00
2023-04-15T01:32:51.326Z,1461.00
2023-04-15T01:33:51.338Z,1449.00
2023-04-15T01:34:51.308Z,1447.00
2023-04-15T01:35:51.329Z,1451.00
2023-04-15T01:36:51.369Z,1447.00
2023-04-15T01:37:51.381Z,1439.00
2023-04-15T01:38:51.470Z,1447.00
2023-04-15T01:39:51.425Z,1436.00
2023-04-15T01:40:51.448Z,1442.00
2023-04-15T01:41:51.485Z,1439.00
2023-04-15T01:42:51.489Z,1443.00
2023-04-15T01:43:51.537Z,1425.00
2023-04-15T01:44:51.546Z,1436.00
2023-04-15T01:45:51.530Z,1437.00
2023-04-15T01:46:51.579Z,1436.00
2023-04-15T01:47:51.540Z,1439.00
2023-04-15T01:48:51.493Z,1437.00
2023-04-15T01:49:51.489Z,1432.00
2023-04-15T01:50:51.464Z,1429.00
2023-04-15T01:51:51.449Z,1430.00
2023-04-15T01:52:51.481Z,1433.00
2023-04-15T01:53:51.435Z,1423.00
2023-04-15T01:54:51.457Z,1432.00
2023-04-15T01:55:51.409Z,1444.00
2023-04-15T01:56:51.386Z,1421.00
2023-04-15T01:57:51.383Z,1437.00
2023-04-15T01:58:51.366Z,1428.00
2023-04-15T01:59:51.362Z,1419.00
2023-04-15T02:00:51.429Z,1415.00
2023-04-15T02:01:51.341Z,1418.00
2023-04-15T02:02:51.381Z,1414.00
2023-04-15T02:03:51.434Z,1427.00
2023-04-15T02:04:51.356Z,1429.00
2023-04-15T02:05:51.367Z,1405.00
2023-04-15T02:06:51.390Z,1402.00
2023-04-15T02:07:51.396Z,1398.00
2023-04-15T02:08:51.407Z,1406.00
2023-04-15T02:09:51.470Z,1400.00
2023-04-15T02:10:51.443Z,1421.00
2023-04-15T02:11:51.469Z,1402.00
2023-04-15T02:12:51.487Z,1410.00
2023-04-15T02:13:51.503Z,1408.00
2023-04-15T02:14:51.533Z,1395.00
2023-04-15T02:15:51.534Z,1392.00
2023-04-15T02:16:51.729Z,1392.00
2023-04-15T02:17:51.596Z,1396.00
2023-04-15T02:18:51.590Z,1393.00
2023-04-15T02:19:51.609Z,1378.00
2023-04-15T02:20:51.640Z,1392.00
2023-04-15T02:21:51.584Z,1392.00
2023-04-15T02:22:51.560Z,1393.00
2023-04-15T02:23:53.966Z,1395.00
2023-04-15T02:24:51.670Z,1394.00
2023-04-15T02:25:53.269Z,1396.00
2023-04-15T02:26:51.744Z,1407.00
2023-04-15T02:27:51.781Z,1384.00
2023-04-15T02:28:51.787Z,1389.00
2023-04-15T02:29:51.819Z,1377.00
2023-04-15T02:30:51.828Z,1377.00
2023-04-15T02:31:51.883Z,1395.00
2023-04-15T02:32:51.941Z,1365.00
2023-04-15T02:33:51.907Z,1373.00
2023-04-15T02:34:51.962Z,1376.00
2023-04-15T02:35:51.949Z,1361.00
2023-04-15T02:36:51.982Z,1358.00
2023-04-15T02:37:51.982Z,1365.00
2023-04-15T02:38:52.006Z,1373.00
2023-04-15T02:39:52.037Z,1367.00
2023-04-15T02:40:52.053Z,1367.00
2023-04-15T02:41:52.079Z,1371.00
2023-04-15T02:42:52.091Z,1352.00
2023-04-15T02:43:52.102Z,1358.00
2023-04-15T02:44:52.145Z,1352.00
2023-04-15T02:45:52.151Z,1362.00
2023-04-15T02:46:52.148Z,1355.00
2023-04-15T02:47:52.208Z,1355.00
2023-04-15T02:48:52.206Z,1351.00
2023-04-15T02:49:52.226Z,1359.00
2023-04-15T02:50:52.245Z,1375.00
2023-04-15T02:51:52.256Z,1346.00
2023-04-15T02:52:52.270Z,1345.00
2023-04-15T02:53:52.285Z,1350.00
2023-04-15T02:54:52.300Z,1351.00
2023-04-15T02:55:52.314Z,1341.00
2023-04-15T02:56:52.323Z,1345.00
2023-04-15T02:57:52.351Z,1342.00
2023-04-15T02:58:52.363Z,1349.00
2023-04-15T02:59:52.390Z,1336.00
2023-04-15T03:00:52.411Z,1341.00
2023-04-15T03:01:52.520Z,1348.00
2023-04-15T03:02:52.664Z,1338.00
2023-04-15T03:03:52.489Z,1332.00
2023-04-15T03:04:52.468Z,1335.00
2023-04-15T03:05:52.493Z,1340.00
2023-04-15T03:06:52.553Z,1336.00
2023-04-15T03:07:52.520Z,1347.00
2023-04-15T03:08:52.532Z,1326.00
2023-04-15T03:09:52.582Z,1346.00
2023-04-15T03:10:52.585Z,1329.00
2023-04-15T03:11:52.596Z,1333.00
2023-04-15T03:12:52.679Z,1325.00
2023-04-15T03:13:52.651Z,1322.00
2023-04-15T03:14:52.655Z,1325.00
2023-04-15T03:15:52.717Z,1326.00
2023-04-15T03:16:52.659Z,1327.00
2023-04-15T03:17:52.679Z,1327.00
2023-04-15T03:18:52.617Z,1331.00
2023-04-15T03:19:52.624Z,1328.00
2023-04-15T03:20:52.582Z,1323.00
2023-04-15T03:21:52.591Z,1317.00
2023-04-15T03:22:52.560Z,1323.00
2023-04-15T03:23:52.561Z,1309.00
2023-04-15T03:24:52.542Z,1319.00
2023-04-15T03:25:52.560Z,1312.00
2023-04-15T03:26:52.517Z,1312.00
2023-04-15T03:27:52.522Z,1316.00
2023-04-15T03:28:52.488Z,1317.00
2023-04-15T03:29:52.486Z,1322.00
2023-04-15T03:30:52.509Z,1306.00
2023-04-15T03:31:52.466Z,1315.00
2023-04-15T03:32:52.497Z,1312.00
2023-04-15T03:33:52.499Z,1303.00
2023-04-15T03:34:52.501Z,1302.00
2023-04-15T03:35:52.531Z,1312.00
2023-04-15T03:36:52.536Z,1305.00
2023-04-15T03:37:52.564Z,1299.00
2023-04-15T03:38:52.584Z,1294.00
2023-04-15T03:39:52.618Z,1306.00
2023-04-15T03:40:52.629Z,1285.00
2023-04-15T03:41:52.643Z,1306.00
2023-04-15T03:42:52.657Z,1282.00
2023-04-15T03:43:52.684Z,1288.00
2023-04-15T03:44:52.701Z,1290.00
2023-04-15T03:45:52.726Z,1277.00
2023-04-15T03:46:52.782Z,1284.00
2023-04-15T03:47:52.791Z,1281.00
2023-04-15T03:48:52.790Z,1294.00
2023-04-15T03:49:52.810Z,1287.00
2023-04-15T03:50:52.833Z,1246.00
2023-04-15T03:51:52.860Z,1258.00
2023-04-15T03:52:52.881Z,1246.00
2023-04-15T03:53:52.906Z,1250.00
2023-04-15T03:54:52.932Z,1247.00
2023-04-15T03:55:52.963Z,1231.00
2023-04-15T03:56:52.979Z,1213.00
2023-04-15T03:57:53.009Z,1197.00
2023-04-15T03:58:53.040Z,1198.00
2023-04-15T03:59:53.073Z,1203.00
2023-04-15T04:00:53.100Z,1198.00
2023-04-15T04:01:53.156Z,1188.00
2023-04-15T04:02:53.366Z,1156.00
2023-04-15T04:03:53.380Z,1159.00
2023-04-15T04:04:53.272Z,1159.00
2023-04-15T04:05:53.264Z,1170.00
2023-04-15T04:06:53.289Z,1157.00
2023-04-15T04:07:53.333Z,1142.00
2023-04-15T04:08:53.360Z,1145.00
2023-04-15T04:09:53.390Z,1142.00
2023-04-15T04:10:53.421Z,1137.00
2023-04-15T04:11:53.547Z,1150.00
2023-04-15T04:12:53.618Z,1126.00
2023-04-15T04:13:53.565Z,1100.00
2023-04-15T04:14:53.609Z,1101.00
2023-04-15T04:15:53.616Z,1118.00
2023-04-15T04:16:53.735Z,1118.00
2023-04-15T04:17:53.707Z,1102.00
2023-04-15T04:18:53.699Z,1101.00
2023-04-15T04:19:53.746Z,1087.00
2023-04-15T04:20:53.771Z,1084.00
2023-04-15T04:21:53.803Z,1088.00
2023-04-15T04:22:53.843Z,1109.00
2023-04-15T04:23:53.875Z,1086.00
2023-04-15T04:24:53.923Z,1074.00
2023-04-15T04:25:54.000Z,1074.00
2023-04-15T04:26:54.017Z,1080.00
2023-04-15T04:27:54.103Z,1075.00
2023-04-15T04:28:54.174Z,1081.00
2023-04-15T04:29:54.100Z,1058.00
2023-04-15T04:30:54.130Z,1074.00
2023-04-15T04:31:54.205Z,1068.00
2023-04-15T04:32:54.114Z,1060.00
2023-04-15T04:33:54.099Z,1073.00
2023-04-15T04:34:54.081Z,1057.00
2023-04-15T04:35:54.040Z,1056.00
2023-04-15T04:36:54.045Z,1045.00
2023-04-15T04:37:54.034Z,1038.00
2023-04-15T04:38:54.032Z,1031.00
2023-04-15T04:39:54.031Z,1049.00
2023-04-15T04:40:54.029Z,1043.00
2023-04-15T04:41:54.005Z,1004.00
2023-04-15T04:42:53.980Z,1005.00
2023-04-15T04:43:53.970Z,999.00
2023-04-15T04:44:53.971Z,1006.00
2023-04-15T04:45:53.987Z,1025.00
2023-04-15T04:46:53.943Z,1025.00
2023-04-15T04:47:53.999Z,1003.00
2023-04-15T04:48:53.944Z,983.00
2023-04-15T04:49:53.924Z,992.00
2023-04-15T04:50:53.910Z,993.00
2023-04-15T04:51:53.896Z,992.00
2023-04-15T04:52:53.914Z,989.00
2023-04-15T04:53:53.902Z,981.00
2023-04-15T04:54:53.878Z,971.00
2023-04-15T04:55:53.865Z,982.00
2023-04-15T04:56:53.870Z,980.00
2023-04-15T04:57:53.882Z,992.00
2023-04-15T04:58:53.980Z,972.00
2023-04-15T04:59:53.942Z,943.00
2023-04-15T05:00:54.023Z,960.00
2023-04-15T05:01:54.052Z,943.00
2023-04-15T05:02:54.223Z,973.00
2023-04-15T05:03:54.375Z,973.00
2023-04-15T05:04:54.168Z,941.00
2023-04-15T05:05:54.217Z,939.00
2023-04-15T05:06:54.250Z,933.00
2023-04-15T05:07:54.292Z,928.00
2023-04-15T05:08:54.324Z,944.00
2023-04-15T05:09:54.463Z,920.00
2023-04-15T05:10:54.452Z,907.00
2023-04-15T05:11:54.470Z,906.00
2023-04-15T05:12:54.498Z,902.00
2023-04-15T05:13:54.548Z,905.00
2023-04-15T05:14:54.602Z,946.00
2023-04-15T05:15:54.613Z,935.00
2023-04-15T05:16:54.577Z,923.00
2023-04-15T05:17:54.579Z,906.00
2023-04-15T05:18:54.556Z,917.00
2023-04-15T05:19:54.539Z,941.00
2023-04-15T05:20:54.563Z,929.00
2023-04-15T05:21:54.521Z,904.00
2023-04-15T05:22:54.500Z,901.00
2023-04-15T05:23:54.491Z,914.00
2023-04-15T05:24:54.516Z,903.00
2023-04-15T05:25:54.574Z,903.00
2023-04-15T05:26:54.576Z,901.00
2023-04-15T05:27:54.614Z,899.00
2023-04-15T05:28:54.666Z,893.00
2023-04-15T05:29:54.703Z,890.00
2023-04-15T05:30:54.742Z,893.00
2023-04-15T05:31:54.786Z,894.00
2023-04-15T05:32:54.865Z,899.00
2023-04-15T05:33:54.860Z,883.00
2023-04-15T05:34:54.916Z,879.00
2023-04-15T05:35:54.949Z,884.00
2023-04-15T05:36:55.014Z,898.00
2023-04-15T05:37:55.032Z,908.00
2023-04-15T05:38:55.076Z,883.00
2023-04-15T05:39:55.118Z,860.00
2023-04-15T05:40:55.167Z,857.00
2023-04-15T05:41:55.206Z,843.00
2023-04-15T05:42:55.236Z,869.00
2023-04-15T05:43:55.278Z,886.00
2023-04-15T05:44:55.322Z,859.00
2023-04-15T05:45:55.380Z,846.00
2023-04-15T05:46:55.409Z,834.00
2023-04-15T05:47:55.499Z,836.00
2023-04-15T05:48:56.591Z,879.00
2023-04-15T05:49:55.541Z,868.00
2023-04-15T05:50:55.570Z,844.00
2023-04-15T05:51:55.616Z,829.00
2023-04-15T05:52:55.655Z,828.00
2023-04-15T05:53:55.694Z,819.00
2023-04-15T05:54:55.741Z,831.00
2023-04-15T05:55:55.792Z,832.00
2023-04-15T05:56:55.836Z,817.00
2023-04-15T05:57:55.869Z,821.00
2023-04-15T05:58:55.921Z,810.00
2023-04-15T05:59:56.029Z,822.00
2023-04-15T06:00:56.016Z,813.00
2023-04-15T06:01:56.101Z,806.00
2023-04-15T06:02:56.191Z,788.00
2023-04-15T06:03:56.273Z,763.00
2023-04-15T06:04:56.212Z,759.00
2023-04-15T06:05:56.234Z,770.00
2023-04-15T06:06:56.204Z,772.00
2023-04-15T06:07:56.195Z,772.00
2023-04-15T06:08:56.195Z,776.00
2023-04-15T06:09:56.180Z,777.00
2023-04-15T06:10:56.150Z,784.00
2023-04-15T06:11:56.143Z,790.00
2023-04-15T06:12:56.127Z,784.00
2023-04-15T06:13:56.105Z,757.00
2023-04-15T06:14:56.660Z,755.00
2023-04-15T06:15:56.145Z,746.00
2023-04-15T06:16:56.142Z,751.00
2023-04-15T06:17:56.225Z,780.00
2023-04-15T06:18:56.241Z,754.00
2023-04-15T06:19:56.281Z,747.00
2023-04-15T06:20:56.320Z,726.00
2023-04-15T06:21:56.357Z,741.00
2023-04-15T06:22:56.391Z,761.00
2023-04-15T06:23:56.420Z,769.00
2023-04-15T06:24:56.458Z,737.00
2023-04-15T06:25:56.503Z,729.00
2023-04-15T06:26:56.564Z,726.00
2023-04-15T06:27:56.582Z,734.00
2023-04-15T06:28:56.631Z,745.00
2023-04-15T06:29:56.658Z,755.00
2023-04-15T06:30:56.707Z,728.00
2023-04-15T06:31:56.807Z,719.00
2023-04-15T06:32:56.813Z,735.00
2023-04-15T06:33:56.849Z,729.00
2023-04-15T06:34:56.848Z,727.00
2023-04-15T06:35:56.886Z,717.00
2023-04-15T06:36:56.918Z,692.00
2023-04-15T06:37:56.954Z,684.00
2023-04-15T06:38:57.028Z,694.00
2023-04-15T06:39:57.030Z,698.00
2023-04-15T06:40:57.059Z,699.00
2023-04-15T06:41:57.102Z,689.00
2023-04-15T06:42:57.145Z,665.00
2023-04-15T06:43:57.181Z,655.00
2023-04-15T06:44:57.241Z,664.00
2023-04-15T06:45:57.325Z,678.00
2023-04-15T06:46:57.294Z,684.00
2023-04-15T06:47:57.373Z,653.00
2023-04-15T06:48:57.405Z,649.00
2023-04-15T06:49:57.414Z,649.00
2023-04-15T06:50:57.437Z,657.00
2023-04-15T06:51:57.481Z,666.00
2023-04-15T06:52:57.508Z,652.00
2023-04-15T06:53:57.534Z,641.00
2023-04-15T06:54:57.588Z,644.00
2023-04-15T06:55:57.603Z,644.00
2023-04-15T06:56:57.652Z,651.00
2023-04-15T06:57:57.688Z,644.00
2023-04-15T06:58:57.727Z,630.00
2023-04-15T06:59:57.771Z,619.00
2023-04-15T07:00:57.824Z,622.00
2023-04-15T07:01:57.912Z,635.00
2023-04-15T07:02:57.909Z,642.00
2023-04-15T07:03:57.923Z,624.00
2023-04-15T07:04:57.941Z,612.00
2023-04-15T07:05:57.959Z,608.00
2023-04-15T07:06:58.013Z,614.00
2023-04-15T07:07:58.031Z,629.00
2023-04-15T07:08:58.062Z,621.00
2023-04-15T07:09:58.093Z,608.00
2023-04-15T07:10:58.129Z,598.00
2023-04-15T07:11:58.164Z,600.00
2023-04-15T07:12:58.195Z,617.00
2023-04-15T07:13:58.225Z,616.00
2023-04-15T07:14:58.215Z,605.00
2023-04-15T07:15:58.203Z,600.00
2023-04-15T07:16:58.216Z,613.00
2023-04-15T07:17:58.240Z,612.00
2023-04-15T07:18:58.152Z,614.00
2023-04-15T07:19:58.143Z,593.00
2023-04-15T07:20:58.127Z,576.00
2023-04-15T07:21:58.114Z,580.00
2023-04-15T07:22:58.102Z,583.00
2023-04-15T07:23:58.086Z,592.00
2023-04-15T07:24:58.089Z,582.00
2023-04-15T07:25:58.075Z,573.00
2023-04-15T07:26:59.564Z,560.00
2023-04-15T07:27:58.056Z,560.00
2023-04-15T07:28:58.046Z,562.00
2023-04-15T07:29:58.026Z,568.00
2023-04-15T07:30:58.069Z,560.00
2023-04-15T07:31:58.032Z,549.00
2023-04-15T07:32:58.034Z,541.00
2023-04-15T07:33:57.994Z,553.00
2023-04-15T07:34:57.984Z,568.00
2023-04-15T07:35:57.964Z,548.00
2023-04-15T07:36:57.980Z,534.00
2023-04-15T07:37:57.944Z,532.00
2023-04-15T07:38:57.940Z,539.00
2023-04-15T07:39:57.930Z,549.00
2023-04-15T07:40:57.913Z,552.00
2023-04-15T07:41:57.918Z,558.00
2023-04-15T07:42:57.926Z,563.00
2023-04-15T07:43:57.943Z,570.00
2023-04-15T07:44:57.948Z,572.00
2023-04-15T07:45:57.995Z,573.00
2023-04-15T07:46:57.989Z,582.00
2023-04-15T07:47:58.053Z,584.00
2023-04-15T07:48:58.039Z,592.00
2023-04-15T07:49:58.052Z,596.00
2023-04-15T07:50:58.074Z,590.00
2023-04-15T07:51:58.087Z,595.00
2023-04-15T07:52:58.097Z,594.00
2023-04-15T07:53:58.109Z,601.00
2023-04-15T07:54:58.124Z,606.00
2023-04-15T07:55:58.128Z,606.00
2023-04-15T07:56:58.150Z,609.00
2023-04-15T07:57:58.166Z,607.00
2023-04-15T07:58:58.249Z,607.00
2023-04-15T07:59:58.203Z,610.00
2023-04-15T08:00:58.224Z,612.00
2023-04-15T08:01:58.274Z,607.00
2023-04-15T08:02:58.363Z,607.00
2023-04-15T08:03:58.463Z,613.00
2023-04-15T08:04:58.327Z,616.00
2023-04-15T08:05:58.300Z,617.00
2023-04-15T08:06:58.312Z,613.00
2023-04-15T08:07:58.335Z,616.00
2023-04-15T08:08:58.403Z,616.00
2023-04-15T08:09:58.357Z,623.00
2023-04-15T08:10:58.369Z,621.00
2023-04-15T08:11:58.378Z,628.00
2023-04-15T08:12:58.409Z,622.00
2023-04-15T08:13:58.402Z,619.00
2023-04-15T08:14:58.428Z,622.00
2023-04-15T08:15:58.476Z,620.00
2023-04-15T08:16:58.446Z,627.00
2023-04-15T08:17:58.500Z,622.00
2023-04-15T08:18:58.507Z,623.00
2023-04-15T08:19:58.482Z,624.00
2023-04-15T08:20:58.510Z,628.00
2023-04-15T08:21:58.527Z,624.00
2023-04-15T08:22:58.531Z,629.00
2023-04-15T08:23:58.534Z,630.00
2023-04-15T08:24:58.546Z,631.00
2023-04-15T08:25:58.559Z,631.00
2023-04-15T08:26:58.568Z,636.00
2023-04-15T08:27:58.582Z,629.00
2023-04-15T08:28:58.574Z,634.00
2023-04-15T08:29:58.590Z,626.00
2023-04-15T08:30:58.564Z,631.00
2023-04-15T08:31:58.622Z,627.00
2023-04-15T08:32:58.605Z,628.00
2023-04-15T08:33:58.525Z,629.00
2023-04-15T08:34:58.506Z,629.00
2023-04-15T08:35:58.476Z,630.00
2023-04-15T08:36:58.455Z,632.00
2023-04-15T08:37:58.449Z,627.00
2023-04-15T08:38:58.408Z,631.00
2023-04-15T08:39:58.424Z,633.00
2023-04-15T08:40:58.361Z,631.00
2023-04-15T08:41:58.344Z,633.00
2023-04-15T08:42:58.325Z,630.00
2023-04-15T08:43:58.334Z,632.00
2023-04-15T08:44:58.331Z,635.00
2023-04-15T08:45:58.263Z,637.00
2023-04-15T08:46:58.249Z,637.00
2023-04-15T08:47:58.242Z,627.00
2023-04-15T08:48:58.207Z,632.00
2023-04-15T08:49:58.189Z,631.00
2023-04-15T08:50:58.170Z,632.00
2023-04-15T08:51:58.163Z,632.00
2023-04-15T08:52:58.142Z,639.00
2023-04-15T08:53:58.111Z,640.00
2023-04-15T08:54:58.093Z,651.00
2023-04-15T08:55:58.077Z,643.00
2023-04-15T08:56:58.100Z,641.00
2023-04-15T08:57:58.042Z,644.00
2023-04-15T08:58:58.024Z,642.00
2023-04-15T08:59:58.003Z,637.00
2023-04-15T09:00:58.038Z,648.00
2023-04-15T09:01:57.993Z,641.00
2023-04-15T09:02:58.008Z,652.00
2023-04-15T09:03:57.957Z,647.00
2023-04-15T09:04:57.916Z,648.00
2023-04-15T09:05:57.894Z,651.00
2023-04-15T09:06:57.878Z,657.00
2023-04-15T09:07:57.867Z,655.00
2023-04-15T09:08:57.855Z,672.00
2023-04-15T09:09:57.842Z,683.00
2023-04-15T09:10:57.832Z,681.00
2023-04-15T09:11:57.859Z,690.00
2023-04-15T09:12:57.865Z,666.00
2023-04-15T09:13:57.868Z,662.00
2023-04-15T09:14:57.867Z,679.00
2023-04-15T09:15:57.895Z,702.00
2023-04-15T09:16:58.030Z,719.00
2023-04-15T09:17:58.069Z,710.00
2023-04-15T09:18:57.994Z,724.00
2023-04-15T09:19:57.995Z,734.00
2023-04-15T09:20:58.026Z,743.00
2023-04-15T09:21:59.086Z,748.00
2023-04-15T09:22:58.084Z,731.00
2023-04-15T09:23:58.239Z,710.00
2023-04-15T09:24:58.181Z,727.00
2023-04-15T09:25:58.236Z,746.00
2023-04-15T09:26:58.282Z,752.00
2023-04-15T09:27:58.365Z,763.00
2023-04-15T09:28:58.395Z,755.00
2023-04-15T09:29:58.422Z,767.00
2023-04-15T09:30:58.530Z,740.00
2023-04-15T09:31:58.498Z,745.00
2023-04-15T09:32:58.595Z,774.00
2023-04-15T09:33:58.573Z,783.00
2023-04-15T09:34:58.567Z,780.00
2023-04-15T09:35:58.604Z,793.00
2023-04-15T09:36:58.628Z,808.00
2023-04-15T09:37:58.686Z,812.00
2023-04-15T09:38:58.715Z,819.00
2023-04-15T09:39:58.754Z,840.00
2023-04-15T09:40:58.783Z,819.00
2023-04-15T09:41:58.832Z,818.00
2023-04-15T09:42:58.863Z,813.00
2023-04-15T09:43:58.960Z,830.00
2023-04-15T09:44:58.935Z,832.00
2023-04-15T09:45:59.053Z,838.00
2023-04-15T09:46:59.067Z,841.00
2023-04-15T09:47:59.304Z,851.00
2023-04-15T09:48:59.134Z,848.00
2023-04-15T09:49:59.290Z,829.00
2023-04-15T09:50:59.223Z,847.00
2023-04-15T09:52:04.974Z,840.00
2023-04-15T09:53:00.252Z,840.00
2023-04-15T09:53:59.241Z,840.00
2023-04-15T09:54:59.264Z,826.00
2023-04-15T09:55:59.198Z,826.00
2023-04-15T09:56:59.164Z,822.00
2023-04-15T09:57:59.144Z,819.00
2023-04-15T09:58:59.113Z,804.00
2023-04-15T09:59:59.097Z,825.00
2023-04-15T10:00:59.137Z,818.00
2023-04-15T10:01:59.203Z,806.00
2023-04-15T10:02:59.246Z,824.00
2023-04-15T10:03:59.353Z,832.00
2023-04-15T10:05:00.212Z,833.00
2023-04-15T10:05:59.187Z,836.00
2023-04-15T10:06:59.165Z,837.00
2023-04-15T10:07:59.145Z,823.00
2023-04-15T10:08:59.146Z,837.00
2023-04-15T10:09:59.116Z,838.00
2023-04-15T10:10:59.088Z,854.00
2023-04-15T10:11:59.072Z,858.00
2023-04-15T10:12:59.072Z,865.00
2023-04-15T10:13:59.112Z,859.00
2023-04-15T10:14:59.006Z,866.00
2023-04-15T10:15:59.046Z,866.00
2023-04-15T10:16:58.960Z,869.00
2023-04-15T10:17:58.971Z,870.00
2023-04-15T10:18:58.925Z,858.00
2023-04-15T10:19:58.913Z,866.00
2023-04-15T10:20:58.892Z,869.00
2023-04-15T10:21:58.868Z,861.00
2023-04-15T10:22:58.864Z,861.00
2023-04-15T10:23:58.918Z,864.00
2023-04-15T10:24:58.955Z,861.00
2023-04-15T10:25:59.020Z,874.00
2023-04-15T10:26:59.035Z,869.00
2023-04-15T10:27:59.072Z,870.00
2023-04-15T10:29:00.154Z,869.00
2023-04-15T10:29:59.150Z,866.00
2023-04-15T10:30:59.232Z,862.00
2023-04-15T10:31:59.294Z,863.00
2023-04-15T10:32:59.345Z,855.00
2023-04-15T10:33:59.400Z,859.00
2023-04-15T10:34:59.358Z,843.00
2023-04-15T10:35:59.412Z,835.00
2023-04-15T10:36:59.440Z,832.00
2023-04-15T10:37:59.488Z,822.00
2023-04-15T10:38:59.522Z,843.00
2023-04-15T10:39:59.585Z,839.00
2023-04-15T10:40:59.618Z,852.00
2023-04-15T10:41:59.652Z,842.00
2023-04-15T10:42:59.689Z,851.00
2023-04-15T10:43:59.839Z,845.00
2023-04-15T10:44:59.774Z,840.00
2023-04-15T10:45:59.799Z,844.00
2023-04-15T10:46:59.871Z,841.00
2023-04-15T10:48:01.606Z,838.00
2023-04-15T10:48:59.862Z,839.00
2023-04-15T10:49:59.854Z,838.00
2023-04-15T10:50:59.831Z,841.00
2023-04-15T10:51:59.800Z,845.00
2023-04-15T10:52:59.779Z,853.00
2023-04-15T10:53:59.764Z,842.00
2023-04-15T10:54:59.739Z,842.00
2023-04-15T10:55:59.709Z,842.00
2023-04-15T10:56:59.675Z,840.00
2023-04-15T10:57:59.702Z,827.00
2023-04-15T10:58:59.752Z,819.00
2023-04-15T10:59:59.797Z,812.00
2023-04-15T11:00:59.829Z,794.00
2023-04-15T11:02:00.006Z,809.00
2023-04-15T11:03:00.120Z,792.00
2023-04-15T11:04:00.094Z,790.00
2023-04-15T11:05:00.072Z,776.00
2023-04-15T11:06:00.073Z,782.00
2023-04-15T11:07:00.101Z,776.00
2023-04-15T11:08:00.172Z,759.00
2023-04-15T11:09:00.203Z,745.00
2023-04-15T11:10:00.286Z,758.00
2023-04-15T11:11:00.309Z,761.00
2023-04-15T11:12:00.354Z,770.00
2023-04-15T11:13:00.396Z,779.00
2023-04-15T11:14:00.664Z,779.00
2023-04-15T11:15:00.504Z,763.00
2023-04-15T11:16:00.597Z,774.00
2023-04-15T11:17:00.593Z,749.00
2023-04-15T11:18:00.713Z,769.00
2023-04-15T11:19:00.703Z,761.00
2023-04-15T11:20:00.738Z,760.00
2023-04-15T11:21:00.784Z,756.00
2023-04-15T11:22:00.819Z,764.00
2023-04-15T11:23:14.745Z,755.00
2023-04-15T11:24:02.187Z,756.00
2023-04-15T11:25:00.843Z,757.00
2023-04-15T11:26:00.824Z,764.00
2023-04-15T11:27:00.777Z,762.00
2023-04-15T11:28:00.760Z,763.00
2023-04-15T11:29:00.732Z,766.00
2023-04-15T11:30:00.725Z,773.00
2023-04-15T11:31:00.713Z,754.00
2023-04-15T11:32:00.715Z,759.00
2023-04-15T11:33:00.775Z,745.00
2023-04-15T11:34:00.717Z,710.00
2023-04-15T11:35:00.790Z,729.00
2023-04-15T11:36:00.801Z,725.00
2023-04-15T11:37:01.004Z,723.00
2023-04-15T11:38:00.901Z,743.00
2023-04-15T11:39:00.966Z,712.00
2023-04-15T11:40:00.982Z,699.00
2023-04-15T11:41:01.026Z,700.00
2023-04-15T11:42:01.080Z,666.00
2023-04-15T11:43:01.108Z,678.00
2023-04-15T11:44:01.214Z,667.00
2023-04-15T11:45:01.193Z,664.00
2023-04-15T11:46:01.355Z,661.00
2023-04-15T11:47:01.259Z,661.00
2023-04-15T11:48:01.350Z,656.00
2023-04-15T11:49:01.359Z,648.00
2023-04-15T11:50:01.406Z,647.00
2023-04-15T11:51:01.437Z,645.00
2023-04-15T11:52:01.469Z,640.00
2023-04-15T11:53:01.525Z,627.00
2023-04-15T11:54:01.745Z,639.00
2023-04-15T11:55:01.609Z,653.00
2023-04-15T11:56:01.620Z,644.00
2023-04-15T11:57:01.715Z,643.00
2023-04-15T11:58:01.690Z,643.00
2023-04-15T11:59:01.768Z,634.00
2023-04-15T12:00:01.804Z,628.00
2023-04-15T12:01:01.803Z,623.00
2023-04-15T12:02:01.962Z,631.00
2023-04-15T12:03:01.990Z,626.00
2023-04-15T12:04:02.136Z,639.00
2023-04-15T12:05:02.024Z,633.00
2023-04-15T12:06:01.994Z,638.00
2023-04-15T12:07:02.031Z,635.00
2023-04-15T12:08:02.076Z,629.00
2023-04-15T12:09:02.116Z,639.00
2023-04-15T12:10:02.194Z,639.00
2023-04-15T12:11:02.204Z,631.00
2023-04-15T12:12:02.277Z,634.00
2023-04-15T12:13:02.299Z,644.00
2023-04-15T12:14:02.568Z,638.00
2023-04-15T12:15:02.364Z,626.00
2023-04-15T12:16:02.528Z,639.00
2023-04-15T12:17:02.437Z,652.00
2023-04-15T12:18:02.549Z,661.00
2023-04-15T12:19:02.498Z,651.00
2023-04-15T12:20:02.460Z,660.00